Aurelia, Iowa
Current Conditions -  °F | °C
As of 2:55 PM on Thursday 27 Nov 2014 (Local Time) from KCKP Reporting Station
Overcast Overcast  
Wind Chill:   Ceiling: 3500
Heat Index: 10°   Visibility: 10mi
Dew Point:   Wind: 5mph
Humidity: 68%   Direction: 130°SE
Pressure: 30.37"   Gusts: NA
Location:  42.71°N, 95.44°W
Report Text: KCKP 272055Z AUTO 13004KT 10SM BKN035 OVC045 M12/M17 A3037 RMK AO2 T11201168
Loading
Personal Weather Stations






























Interactive Weather Map New forecast layout! Learn more

10-Day Weather Forecast

Advertisements
Track Severe Weather on mobile